sensor_id;sensor_type;location;lat;lon;timestamp;P1;durP1;ratioP1;P2;durP2;ratioP2
16033;SDS011;8121;51.418;6.998;2022-08-21T00:09:57;8.57;;;2.90;;
16033;SDS011;8121;51.418;6.998;2022-08-21T00:20:00;4.67;;;3.37;;
16033;SDS011;8121;51.418;6.998;2022-08-21T00:30:02;7.40;;;4.20;;
16033;SDS011;8121;51.418;6.998;2022-08-21T00:40:07;8.37;;;3.07;;
16033;SDS011;8121;51.418;6.998;2022-08-21T00:50:11;10.20;;;3.80;;
16033;SDS011;8121;51.418;6.998;2022-08-21T01:00:16;11.43;;;3.80;;
16033;SDS011;8121;51.418;6.998;2022-08-21T01:10:20;8.00;;;3.07;;
16033;SDS011;8121;51.418;6.998;2022-08-21T01:20:25;6.23;;;3.67;;
16033;SDS011;8121;51.418;6.998;2022-08-21T01:30:28;3.40;;;3.10;;
16033;SDS011;8121;51.418;6.998;2022-08-21T01:40:29;6.50;;;3.30;;
16033;SDS011;8121;51.418;6.998;2022-08-21T01:50:32;7.30;;;3.60;;
16033;SDS011;8121;51.418;6.998;2022-08-21T02:00:34;4.80;;;3.20;;
16033;SDS011;8121;51.418;6.998;2022-08-21T02:10:36;7.37;;;3.30;;
16033;SDS011;8121;51.418;6.998;2022-08-21T02:20:39;5.53;;;1.93;;
16033;SDS011;8121;51.418;6.998;2022-08-21T02:30:44;11.40;;;2.93;;
16033;SDS011;8121;51.418;6.998;2022-08-21T02:40:47;6.10;;;2.90;;
16033;SDS011;8121;51.418;6.998;2022-08-21T02:50:53;1.90;;;1.80;;
16033;SDS011;8121;51.418;6.998;2022-08-21T03:00:56;7.70;;;2.20;;
16033;SDS011;8121;51.418;6.998;2022-08-21T03:11:00;3.10;;;2.13;;
16033;SDS011;8121;51.418;6.998;2022-08-21T03:21:01;8.33;;;2.30;;
16033;SDS011;8121;51.418;6.998;2022-08-21T03:31:04;4.60;;;2.70;;
16033;SDS011;8121;51.418;6.998;2022-08-21T03:41:06;4.90;;;2.93;;
16033;SDS011;8121;51.418;6.998;2022-08-21T03:51:10;9.77;;;3.00;;
16033;SDS011;8121;51.418;6.998;2022-08-21T04:01:12;5.30;;;3.10;;
16033;SDS011;8121;51.418;6.998;2022-08-21T04:11:15;5.43;;;3.70;;
16033;SDS011;8121;51.418;6.998;2022-08-21T04:21:16;20.37;;;6.27;;
16033;SDS011;8121;51.418;6.998;2022-08-21T04:31:19;9.50;;;5.20;;
16033;SDS011;8121;51.418;6.998;2022-08-21T04:41:21;12.63;;;5.83;;
16033;SDS011;8121;51.418;6.998;2022-08-21T04:51:25;8.20;;;4.93;;
16033;SDS011;8121;51.418;6.998;2022-08-21T05:01:28;16.80;;;8.30;;
16033;SDS011;8121;51.418;6.998;2022-08-21T05:11:31;18.10;;;6.50;;
16033;SDS011;8121;51.418;6.998;2022-08-21T05:21:35;10.47;;;7.03;;
16033;SDS011;8121;51.418;6.998;2022-08-21T05:31:38;16.90;;;8.37;;
16033;SDS011;8121;51.418;6.998;2022-08-21T05:41:40;14.77;;;8.00;;
16033;SDS011;8121;51.418;6.998;2022-08-21T05:51:43;12.47;;;7.07;;
16033;SDS011;8121;51.418;6.998;2022-08-21T06:01:45;14.03;;;7.17;;
16033;SDS011;8121;51.418;6.998;2022-08-21T06:11:48;10.97;;;6.30;;
16033;SDS011;8121;51.418;6.998;2022-08-21T06:21:50;19.83;;;6.60;;
16033;SDS011;8121;51.418;6.998;2022-08-21T06:31:53;8.77;;;6.33;;
16033;SDS011;8121;51.418;6.998;2022-08-21T06:41:54;12.23;;;6.37;;
16033;SDS011;8121;51.418;6.998;2022-08-21T06:51:57;15.83;;;6.23;;
16033;SDS011;8121;51.418;6.998;2022-08-21T07:01:59;10.97;;;5.23;;
16033;SDS011;8121;51.418;6.998;2022-08-21T07:12:02;9.60;;;4.53;;
16033;SDS011;8121;51.418;6.998;2022-08-21T07:22:04;8.17;;;3.83;;
16033;SDS011;8121;51.418;6.998;2022-08-21T07:32:08;6.80;;;3.63;;
16033;SDS011;8121;51.418;6.998;2022-08-21T07:42:09;10.43;;;3.90;;
16033;SDS011;8121;51.418;6.998;2022-08-21T07:52:12;9.10;;;2.90;;
16033;SDS011;8121;51.418;6.998;2022-08-21T08:02:21;6.20;;;2.57;;
16033;SDS011;8121;51.418;6.998;2022-08-21T08:12:24;5.67;;;2.13;;
16033;SDS011;8121;51.418;6.998;2022-08-21T08:22:29;6.13;;;2.20;;
16033;SDS011;8121;51.418;6.998;2022-08-21T08:32:32;6.40;;;1.37;;
16033;SDS011;8121;51.418;6.998;2022-08-21T08:42:34;1.07;;;1.03;;
16033;SDS011;8121;51.418;6.998;2022-08-21T08:52:39;3.07;;;1.37;;
16033;SDS011;8121;51.418;6.998;2022-08-21T09:02:44;5.50;;;1.90;;
16033;SDS011;8121;51.418;6.998;2022-08-21T09:12:51;1.03;;;0.93;;
16033;SDS011;8121;51.418;6.998;2022-08-21T09:22:58;4.03;;;1.03;;
16033;SDS011;8121;51.418;6.998;2022-08-21T09:33:06;1.10;;;0.80;;
16033;SDS011;8121;51.418;6.998;2022-08-21T09:43:14;1.93;;;1.40;;
16033;SDS011;8121;51.418;6.998;2022-08-21T09:53:20;1.57;;;1.17;;
16033;SDS011;8121;51.418;6.998;2022-08-21T10:03:22;1.83;;;0.70;;
16033;SDS011;8121;51.418;6.998;2022-08-21T10:13:28;2.33;;;1.00;;
16033;SDS011;8121;51.418;6.998;2022-08-21T10:23:41;2.83;;;1.30;;
16033;SDS011;8121;51.418;6.998;2022-08-21T10:33:52;3.00;;;1.10;;
16033;SDS011;8121;51.418;6.998;2022-08-21T10:43:59;0.90;;;0.80;;
16033;SDS011;8121;51.418;6.998;2022-08-21T10:54:09;0.97;;;0.87;;
16033;SDS011;8121;51.418;6.998;2022-08-21T11:04:16;1.53;;;0.90;;
16033;SDS011;8121;51.418;6.998;2022-08-21T11:14:29;2.80;;;1.20;;
16033;SDS011;8121;51.418;6.998;2022-08-21T11:24:38;1.27;;;1.00;;
16033;SDS011;8121;51.418;6.998;2022-08-21T11:34:51;2.17;;;1.30;;
16033;SDS011;8121;51.418;6.998;2022-08-21T11:45:02;1.73;;;0.90;;
16033;SDS011;8121;51.418;6.998;2022-08-21T11:55:11;7.30;;;1.40;;
16033;SDS011;8121;51.418;6.998;2022-08-21T12:05:24;5.50;;;1.23;;
16033;SDS011;8121;51.418;6.998;2022-08-21T12:15:29;1.73;;;0.97;;
16033;SDS011;8121;51.418;6.998;2022-08-21T12:25:35;1.50;;;0.80;;
16033;SDS011;8121;51.418;6.998;2022-08-21T12:35:40;1.53;;;0.80;;
16033;SDS011;8121;51.418;6.998;2022-08-21T12:45:44;3.13;;;0.63;;
16033;SDS011;8121;51.418;6.998;2022-08-21T12:55:49;2.60;;;1.10;;
16033;SDS011;8121;51.418;6.998;2022-08-21T13:05:50;7.87;;;1.33;;
16033;SDS011;8121;51.418;6.998;2022-08-21T13:15:57;2.73;;;1.13;;
16033;SDS011;8121;51.418;6.998;2022-08-21T13:26:00;0.97;;;0.87;;
16033;SDS011;8121;51.418;6.998;2022-08-21T13:36:05;0.97;;;0.87;;
16033;SDS011;8121;51.418;6.998;2022-08-21T13:46:11;3.60;;;1.03;;
16033;SDS011;8121;51.418;6.998;2022-08-21T13:56:22;1.30;;;0.77;;
16033;SDS011;8121;51.418;6.998;2022-08-21T14:06:26;3.57;;;0.83;;
16033;SDS011;8121;51.418;6.998;2022-08-21T14:16:40;2.23;;;0.90;;
16033;SDS011;8121;51.418;6.998;2022-08-21T14:26:46;1.07;;;0.90;;
16033;SDS011;8121;51.418;6.998;2022-08-21T14:36:51;0.70;;;0.60;;
16033;SDS011;8121;51.418;6.998;2022-08-21T14:46:53;3.70;;;1.07;;
16033;SDS011;8121;51.418;6.998;2022-08-21T14:56:56;1.20;;;1.03;;
16033;SDS011;8121;51.418;6.998;2022-08-21T15:06:57;2.00;;;0.80;;
16033;SDS011;8121;51.418;6.998;2022-08-21T15:17:00;4.13;;;1.13;;
16033;SDS011;8121;51.418;6.998;2022-08-21T15:37:12;3.43;;;0.80;;
16033;SDS011;8121;51.418;6.998;2022-08-21T15:47:14;1.23;;;0.67;;
16033;SDS011;8121;51.418;6.998;2022-08-21T15:57:20;2.50;;;0.60;;
16033;SDS011;8121;51.418;6.998;2022-08-21T16:07:23;1.10;;;0.80;;
16033;SDS011;8121;51.418;6.998;2022-08-21T16:17:27;2.20;;;0.83;;
16033;SDS011;8121;51.418;6.998;2022-08-21T16:27:30;1.47;;;0.80;;
16033;SDS011;8121;51.418;6.998;2022-08-21T16:37:33;6.60;;;1.03;;
16033;SDS011;8121;51.418;6.998;2022-08-21T16:47:34;1.00;;;0.90;;
16033;SDS011;8121;51.418;6.998;2022-08-21T16:57:37;2.43;;;1.17;;
16033;SDS011;8121;51.418;6.998;2022-08-21T17:07:39;1.20;;;1.07;;
16033;SDS011;8121;51.418;6.998;2022-08-21T17:17:42;1.07;;;0.73;;
16033;SDS011;8121;51.418;6.998;2022-08-21T17:27:43;0.93;;;0.70;;
16033;SDS011;8121;51.418;6.998;2022-08-21T17:37:47;1.73;;;1.47;;
16033;SDS011;8121;51.418;6.998;2022-08-21T17:47:49;8.83;;;1.33;;
16033;SDS011;8121;51.418;6.998;2022-08-21T17:57:52;4.03;;;1.03;;
16033;SDS011;8121;51.418;6.998;2022-08-21T18:07:54;2.03;;;1.30;;
16033;SDS011;8121;51.418;6.998;2022-08-21T18:17:57;3.23;;;1.00;;
16033;SDS011;8121;51.418;6.998;2022-08-21T18:27:59;1.63;;;1.53;;
16033;SDS011;8121;51.418;6.998;2022-08-21T18:38:04;1.27;;;1.00;;
16033;SDS011;8121;51.418;6.998;2022-08-21T18:48:07;3.53;;;0.90;;
16033;SDS011;8121;51.418;6.998;2022-08-21T18:58:11;3.80;;;1.17;;
16033;SDS011;8121;51.418;6.998;2022-08-21T19:08:14;2.80;;;0.93;;
16033;SDS011;8121;51.418;6.998;2022-08-21T19:18:18;1.00;;;0.90;;
16033;SDS011;8121;51.418;6.998;2022-08-21T19:28:25;1.93;;;1.33;;
16033;SDS011;8121;51.418;6.998;2022-08-21T19:38:30;2.07;;;0.83;;
16033;SDS011;8121;51.418;6.998;2022-08-21T19:48:31;1.00;;;0.67;;
16033;SDS011;8121;51.418;6.998;2022-08-21T19:58:36;0.80;;;0.80;;
16033;SDS011;8121;51.418;6.998;2022-08-21T20:08:39;1.67;;;0.80;;
16033;SDS011;8121;51.418;6.998;2022-08-21T20:18:42;1.30;;;0.90;;
16033;SDS011;8121;51.418;6.998;2022-08-21T20:28:44;2.03;;;1.27;;
16033;SDS011;8121;51.418;6.998;2022-08-21T20:38:47;2.20;;;1.43;;
16033;SDS011;8121;51.418;6.998;2022-08-21T20:48:51;6.93;;;1.47;;
16033;SDS011;8121;51.418;6.998;2022-08-21T20:58:55;9.30;;;1.50;;
16033;SDS011;8121;51.418;6.998;2022-08-21T21:09:00;4.20;;;2.20;;
16033;SDS011;8121;51.418;6.998;2022-08-21T21:19:11;2.23;;;1.40;;
16033;SDS011;8121;51.418;6.998;2022-08-21T21:29:16;7.13;;;1.80;;
16033;SDS011;8121;51.418;6.998;2022-08-21T21:39:22;9.97;;;1.80;;
16033;SDS011;8121;51.418;6.998;2022-08-21T21:49:33;4.73;;;1.60;;
16033;SDS011;8121;51.418;6.998;2022-08-21T21:59:43;11.80;;;1.90;;
16033;SDS011;8121;51.418;6.998;2022-08-21T22:09:52;4.73;;;1.47;;
16033;SDS011;8121;51.418;6.998;2022-08-21T22:19:58;9.13;;;2.40;;
16033;SDS011;8121;51.418;6.998;2022-08-21T22:30:04;11.50;;;2.20;;
16033;SDS011;8121;51.418;6.998;2022-08-21T22:40:10;4.23;;;2.20;;
16033;SDS011;8121;51.418;6.998;2022-08-21T22:50:16;5.40;;;2.00;;
16033;SDS011;8121;51.418;6.998;2022-08-21T23:00:35;2.60;;;1.83;;
16033;SDS011;8121;51.418;6.998;2022-08-21T23:10:47;4.90;;;2.20;;
16033;SDS011;8121;51.418;6.998;2022-08-21T23:20:55;1.80;;;1.63;;
16033;SDS011;8121;51.418;6.998;2022-08-21T23:31:09;4.67;;;1.60;;
16033;SDS011;8121;51.418;6.998;2022-08-21T23:41:43;5.07;;;1.60;;
16033;SDS011;8121;51.418;6.998;2022-08-21T23:52:05;8.43;;;1.93;;
